sensor_id;sensor_type;location;lat;lon;timestamp;pressure;altitude;pressure_sealevel;temperature;humidity
78407;BME280;67692;51.074;-1.790;2023-08-06T00:01:18;100942.34;;;13.18;78.38
78407;BME280;67692;51.074;-1.790;2023-08-06T00:03:46;100943.56;;;13.13;78.54
78407;BME280;67692;51.074;-1.790;2023-08-06T00:06:13;100943.00;;;13.09;78.56
78407;BME280;67692;51.074;-1.790;2023-08-06T00:08:41;100944.13;;;12.94;79.29
78407;BME280;67692;51.074;-1.790;2023-08-06T00:11:07;100945.16;;;12.80;79.69
78407;BME280;67692;51.074;-1.790;2023-08-06T00:13:34;100945.88;;;12.82;79.85
78407;BME280;67692;51.074;-1.790;2023-08-06T00:16:10;100944.34;;;12.79;80.06
78407;BME280;67692;51.074;-1.790;2023-08-06T00:18:37;100951.91;;;12.82;80.03
78407;BME280;67692;51.074;-1.790;2023-08-06T00:21:04;100950.00;;;12.73;80.24
78407;BME280;67692;51.074;-1.790;2023-08-06T00:23:31;100951.16;;;12.69;80.61
78407;BME280;67692;51.074;-1.790;2023-08-06T00:25:59;100948.94;;;12.76;80.04
78407;BME280;67692;51.074;-1.790;2023-08-06T00:28:25;100947.59;;;12.70;80.25
78407;BME280;67692;51.074;-1.790;2023-08-06T00:30:53;100955.50;;;12.69;80.38
78407;BME280;67692;51.074;-1.790;2023-08-06T00:33:19;100961.31;;;12.72;80.08
78407;BME280;67692;51.074;-1.790;2023-08-06T00:35:46;100967.13;;;12.76;80.08
78407;BME280;67692;51.074;-1.790;2023-08-06T00:38:13;100968.97;;;12.63;80.37
78407;BME280;67692;51.074;-1.790;2023-08-06T00:40:39;100978.31;;;12.65;80.11
78407;BME280;67692;51.074;-1.790;2023-08-06T00:43:07;100977.34;;;12.66;79.96
78407;BME280;67692;51.074;-1.790;2023-08-06T00:45:36;100977.88;;;12.47;80.67
78407;BME280;67692;51.074;-1.790;2023-08-06T00:48:04;100985.03;;;12.44;81.08
78407;BME280;67692;51.074;-1.790;2023-08-06T00:50:31;100983.78;;;12.49;80.97
78407;BME280;67692;51.074;-1.790;2023-08-06T00:52:58;100984.13;;;12.45;80.80
78407;BME280;67692;51.074;-1.790;2023-08-06T00:55:25;100992.56;;;12.36;80.94
78407;BME280;67692;51.074;-1.790;2023-08-06T00:57:53;100998.91;;;12.32;81.19
78407;BME280;67692;51.074;-1.790;2023-08-06T01:00:24;101000.13;;;12.39;81.10
78407;BME280;67692;51.074;-1.790;2023-08-06T01:02:51;100986.44;;;12.37;80.92
78407;BME280;67692;51.074;-1.790;2023-08-06T01:05:18;100989.97;;;12.36;81.05
78407;BME280;67692;51.074;-1.790;2023-08-06T01:07:51;101006.59;;;12.33;80.89
78407;BME280;67692;51.074;-1.790;2023-08-06T01:10:34;101000.28;;;12.25;81.27
78407;BME280;67692;51.074;-1.790;2023-08-06T01:13:13;101002.47;;;12.31;80.97
78407;BME280;67692;51.074;-1.790;2023-08-06T01:15:48;100999.94;;;12.29;80.95
78407;BME280;67692;51.074;-1.790;2023-08-06T01:18:16;101008.03;;;12.37;80.60
78407;BME280;67692;51.074;-1.790;2023-08-06T01:20:44;101009.34;;;12.43;80.03
78407;BME280;67692;51.074;-1.790;2023-08-06T01:23:11;101012.28;;;12.38;80.38
78407;BME280;67692;51.074;-1.790;2023-08-06T01:25:41;101015.72;;;12.39;80.33
78407;BME280;67692;51.074;-1.790;2023-08-06T01:28:18;101005.78;;;12.33;80.42
78407;BME280;67692;51.074;-1.790;2023-08-06T01:30:50;101006.59;;;12.33;80.35
78407;BME280;67692;51.074;-1.790;2023-08-06T01:33:19;101008.84;;;12.38;80.16
78407;BME280;67692;51.074;-1.790;2023-08-06T01:35:49;101013.59;;;12.44;79.47
78407;BME280;67692;51.074;-1.790;2023-08-06T01:38:17;101015.66;;;12.51;79.33
78407;BME280;67692;51.074;-1.790;2023-08-06T01:40:43;101025.44;;;12.48;79.00
78407;BME280;67692;51.074;-1.790;2023-08-06T01:43:10;101022.78;;;12.37;80.20
78407;BME280;67692;51.074;-1.790;2023-08-06T01:45:36;101022.78;;;12.37;79.29
78407;BME280;67692;51.074;-1.790;2023-08-06T01:48:03;101042.94;;;12.33;79.60
78407;BME280;67692;51.074;-1.790;2023-08-06T01:50:30;101041.28;;;12.32;80.10
78407;BME280;67692;51.074;-1.790;2023-08-06T01:52:58;101055.16;;;12.44;80.09
78407;BME280;67692;51.074;-1.790;2023-08-06T01:55:24;101056.41;;;12.51;79.35
78407;BME280;67692;51.074;-1.790;2023-08-06T01:57:51;101052.81;;;12.65;78.96
78407;BME280;67692;51.074;-1.790;2023-08-06T02:00:18;101063.75;;;12.57;78.78
78407;BME280;67692;51.074;-1.790;2023-08-06T02:02:44;101056.84;;;12.69;78.39
78407;BME280;67692;51.074;-1.790;2023-08-06T02:05:11;101056.31;;;12.76;78.51
78407;BME280;67692;51.074;-1.790;2023-08-06T02:07:37;101060.44;;;12.79;78.06
78407;BME280;67692;51.074;-1.790;2023-08-06T02:10:07;101061.88;;;12.83;77.75
78407;BME280;67692;51.074;-1.790;2023-08-06T02:12:34;101061.75;;;12.85;77.71
78407;BME280;67692;51.074;-1.790;2023-08-06T02:15:00;101052.81;;;12.89;77.60
78407;BME280;67692;51.074;-1.790;2023-08-06T02:17:27;101057.28;;;12.87;78.26
78407;BME280;67692;51.074;-1.790;2023-08-06T02:19:53;101057.28;;;12.87;77.41
78407;BME280;67692;51.074;-1.790;2023-08-06T02:22:20;101063.09;;;12.90;77.76
78407;BME280;67692;51.074;-1.790;2023-08-06T02:24:49;101062.41;;;12.88;76.99
78407;BME280;67692;51.074;-1.790;2023-08-06T02:27:17;101064.38;;;12.85;77.44
78407;BME280;67692;51.074;-1.790;2023-08-06T02:29:43;101064.81;;;12.78;77.76
78407;BME280;67692;51.074;-1.790;2023-08-06T02:32:10;101065.41;;;12.82;78.05
78407;BME280;67692;51.074;-1.790;2023-08-06T02:34:36;101063.75;;;12.81;77.75
78407;BME280;67692;51.074;-1.790;2023-08-06T02:37:03;101061.44;;;12.65;77.64
78407;BME280;67692;51.074;-1.790;2023-08-06T02:39:30;101065.25;;;12.72;77.68
78407;BME280;67692;51.074;-1.790;2023-08-06T02:41:58;101061.63;;;12.75;77.61
78407;BME280;67692;51.074;-1.790;2023-08-06T02:44:28;101058.63;;;12.68;77.12
78407;BME280;67692;51.074;-1.790;2023-08-06T02:46:54;101061.78;;;12.61;77.27
78407;BME280;67692;51.074;-1.790;2023-08-06T02:49:21;101058.84;;;12.65;77.10
78407;BME280;67692;51.074;-1.790;2023-08-06T02:51:48;101062.38;;;12.64;77.09
78407;BME280;67692;51.074;-1.790;2023-08-06T02:54:14;101065.72;;;12.54;77.20
78407;BME280;67692;51.074;-1.790;2023-08-06T02:56:43;101075.78;;;12.58;77.57
78407;BME280;67692;51.074;-1.790;2023-08-06T02:59:09;101079.16;;;12.47;77.40
78407;BME280;67692;51.074;-1.790;2023-08-06T03:01:37;101072.31;;;12.46;77.61
78407;BME280;67692;51.074;-1.790;2023-08-06T03:04:04;101079.25;;;12.59;77.72
78407;BME280;67692;51.074;-1.790;2023-08-06T03:06:31;101077.75;;;12.67;78.37
78407;BME280;67692;51.074;-1.790;2023-08-06T03:08:57;101079.19;;;12.71;78.33
78407;BME280;67692;51.074;-1.790;2023-08-06T03:11:24;101079.19;;;12.71;78.49
78407;BME280;67692;51.074;-1.790;2023-08-06T03:13:51;101081.56;;;12.74;77.71
78407;BME280;67692;51.074;-1.790;2023-08-06T03:16:17;101081.56;;;12.74;77.89
78407;BME280;67692;51.074;-1.790;2023-08-06T03:18:45;101082.72;;;12.70;77.56
78407;BME280;67692;51.074;-1.790;2023-08-06T03:21:12;101081.47;;;12.76;78.13
78407;BME280;67692;51.074;-1.790;2023-08-06T03:23:39;101086.78;;;12.74;77.99
78407;BME280;67692;51.074;-1.790;2023-08-06T03:26:06;101086.84;;;12.73;77.96
78407;BME280;67692;51.074;-1.790;2023-08-06T03:28:32;101085.19;;;12.72;78.33
78407;BME280;67692;51.074;-1.790;2023-08-06T03:30:59;101086.03;;;12.72;77.77
78407;BME280;67692;51.074;-1.790;2023-08-06T03:33:26;101080.84;;;12.72;77.07
78407;BME280;67692;51.074;-1.790;2023-08-06T03:35:55;101092.16;;;12.71;77.62
78407;BME280;67692;51.074;-1.790;2023-08-06T03:38:22;101095.81;;;12.69;78.14
78407;BME280;67692;51.074;-1.790;2023-08-06T03:40:49;101098.41;;;12.69;77.66
78407;BME280;67692;51.074;-1.790;2023-08-06T03:43:16;101084.38;;;12.71;78.21
78407;BME280;67692;51.074;-1.790;2023-08-06T03:45:43;101093.34;;;12.67;78.19
78407;BME280;67692;51.074;-1.790;2023-08-06T03:48:09;101095.34;;;12.64;78.15
78407;BME280;67692;51.074;-1.790;2023-08-06T03:50:36;101088.38;;;12.64;78.15
78407;BME280;67692;51.074;-1.790;2023-08-06T03:53:04;101085.06;;;12.62;77.12
78407;BME280;67692;51.074;-1.790;2023-08-06T03:55:31;101084.81;;;12.65;78.22
78407;BME280;67692;51.074;-1.790;2023-08-06T03:57:57;101090.56;;;12.58;77.89
78407;BME280;67692;51.074;-1.790;2023-08-06T04:00:24;101087.88;;;12.59;78.53
78407;BME280;67692;51.074;-1.790;2023-08-06T04:02:51;101087.13;;;12.57;78.62
78407;BME280;67692;51.074;-1.790;2023-08-06T04:05:18;101086.19;;;12.58;78.86
78407;BME280;67692;51.074;-1.790;2023-08-06T04:07:44;101089.84;;;12.56;79.17
78407;BME280;67692;51.074;-1.790;2023-08-06T04:10:12;101092.31;;;12.57;79.28
78407;BME280;67692;51.074;-1.790;2023-08-06T04:12:39;101094.84;;;12.59;78.95
78407;BME280;67692;51.074;-1.790;2023-08-06T04:15:07;101098.47;;;12.56;78.76
78407;BME280;67692;51.074;-1.790;2023-08-06T04:17:33;101095.97;;;12.55;79.02
78407;BME280;67692;51.074;-1.790;2023-08-06T04:20:00;101099.63;;;12.52;79.18
78407;BME280;67692;51.074;-1.790;2023-08-06T04:22:27;101099.63;;;12.52;79.13
78407;BME280;67692;51.074;-1.790;2023-08-06T04:24:54;101103.16;;;12.51;79.11
78407;BME280;67692;51.074;-1.790;2023-08-06T04:27:22;101103.16;;;12.51;79.57
78407;BME280;67692;51.074;-1.790;2023-08-06T04:29:48;101106.47;;;12.53;79.28
78407;BME280;67692;51.074;-1.790;2023-08-06T04:32:15;101105.75;;;12.51;79.41
78407;BME280;67692;51.074;-1.790;2023-08-06T04:34:42;101107.75;;;12.47;79.22
78407;BME280;67692;51.074;-1.790;2023-08-06T04:37:09;101111.28;;;12.46;79.21
78407;BME280;67692;51.074;-1.790;2023-08-06T04:39:36;101114.72;;;12.47;78.93
78407;BME280;67692;51.074;-1.790;2023-08-06T04:42:03;101115.19;;;12.52;78.03
78407;BME280;67692;51.074;-1.790;2023-08-06T04:44:31;101120.19;;;12.55;78.67
78407;BME280;67692;51.074;-1.790;2023-08-06T04:46:58;101127.25;;;12.53;78.91
78407;BME280;67692;51.074;-1.790;2023-08-06T04:49:25;101115.44;;;12.49;79.17
78407;BME280;67692;51.074;-1.790;2023-08-06T04:51:51;101112.09;;;12.47;79.07
78407;BME280;67692;51.074;-1.790;2023-08-06T04:54:18;101116.16;;;12.51;79.04
78407;BME280;67692;51.074;-1.790;2023-08-06T04:56:44;101124.53;;;12.55;78.33
78407;BME280;67692;51.074;-1.790;2023-08-06T04:59:11;101132.66;;;12.50;79.03
78407;BME280;67692;51.074;-1.790;2023-08-06T05:01:39;101126.22;;;12.43;79.05
78407;BME280;67692;51.074;-1.790;2023-08-06T05:04:05;101127.88;;;12.44;79.22
78407;BME280;67692;51.074;-1.790;2023-08-06T05:06:32;101137.25;;;12.46;79.46
78407;BME280;67692;51.074;-1.790;2023-08-06T05:08:59;101143.47;;;12.44;79.59
78407;BME280;67692;51.074;-1.790;2023-08-06T05:11:25;101154.59;;;12.46;79.31
78407;BME280;67692;51.074;-1.790;2023-08-06T05:13:52;101152.00;;;12.46;79.46
78407;BME280;67692;51.074;-1.790;2023-08-06T05:16:18;101157.94;;;12.48;79.12
78407;BME280;67692;51.074;-1.790;2023-08-06T05:18:46;101157.72;;;12.51;79.15
78407;BME280;67692;51.074;-1.790;2023-08-06T05:21:13;101163.41;;;12.56;77.71
78407;BME280;67692;51.074;-1.790;2023-08-06T05:23:41;101165.72;;;12.48;77.63
78407;BME280;67692;51.074;-1.790;2023-08-06T05:26:08;101164.19;;;12.33;78.02
78407;BME280;67692;51.074;-1.790;2023-08-06T05:28:34;101169.06;;;12.25;78.54
78407;BME280;67692;51.074;-1.790;2023-08-06T05:31:03;101166.16;;;12.16;78.68
78407;BME280;67692;51.074;-1.790;2023-08-06T05:33:30;101175.28;;;12.22;79.30
78407;BME280;67692;51.074;-1.790;2023-08-06T05:35:58;101173.09;;;12.29;79.99
78407;BME280;67692;51.074;-1.790;2023-08-06T05:38:24;101171.13;;;12.32;79.97
78407;BME280;67692;51.074;-1.790;2023-08-06T05:40:51;101170.91;;;12.35;79.83
78407;BME280;67692;51.074;-1.790;2023-08-06T05:43:17;101175.78;;;12.40;79.93
78407;BME280;67692;51.074;-1.790;2023-08-06T05:45:44;101177.97;;;12.46;80.13
78407;BME280;67692;51.074;-1.790;2023-08-06T05:48:11;101189.59;;;12.53;79.88
78407;BME280;67692;51.074;-1.790;2023-08-06T05:50:38;101185.00;;;12.57;79.80
78407;BME280;67692;51.074;-1.790;2023-08-06T05:53:06;101202.78;;;12.63;79.62
78407;BME280;67692;51.074;-1.790;2023-08-06T05:55:33;101195.94;;;12.62;78.88
78407;BME280;67692;51.074;-1.790;2023-08-06T05:57:59;101200.09;;;12.64;78.62
78407;BME280;67692;51.074;-1.790;2023-08-06T06:00:26;101198.22;;;12.66;79.05
78407;BME280;67692;51.074;-1.790;2023-08-06T06:02:53;101198.72;;;12.71;78.62
78407;BME280;67692;51.074;-1.790;2023-08-06T06:05:19;101201.19;;;12.73;78.56
78407;BME280;67692;51.074;-1.790;2023-08-06T06:07:46;101203.06;;;12.84;78.28
78407;BME280;67692;51.074;-1.790;2023-08-06T06:10:14;101210.13;;;12.81;78.90
78407;BME280;67692;51.074;-1.790;2023-08-06T06:12:41;101207.19;;;12.86;78.48
78407;BME280;67692;51.074;-1.790;2023-08-06T06:15:08;101202.75;;;12.88;78.41
78407;BME280;67692;51.074;-1.790;2023-08-06T06:17:34;101207.63;;;12.93;78.80
78407;BME280;67692;51.074;-1.790;2023-08-06T06:20:01;101208.34;;;12.95;77.58
78407;BME280;67692;51.074;-1.790;2023-08-06T06:22:29;101210.41;;;13.02;77.88
78407;BME280;67692;51.074;-1.790;2023-08-06T06:24:56;101216.94;;;13.08;76.59
78407;BME280;67692;51.074;-1.790;2023-08-06T06:27:23;101212.94;;;13.15;77.25
78407;BME280;67692;51.074;-1.790;2023-08-06T06:29:50;101213.16;;;13.12;77.31
78407;BME280;67692;51.074;-1.790;2023-08-06T06:32:17;101220.56;;;13.18;76.97
78407;BME280;67692;51.074;-1.790;2023-08-06T06:34:44;101214.09;;;13.24;76.50
78407;BME280;67692;51.074;-1.790;2023-08-06T06:37:10;101221.84;;;13.36;76.04
78407;BME280;67692;51.074;-1.790;2023-08-06T06:39:37;101226.59;;;13.43;75.73
78407;BME280;67692;51.074;-1.790;2023-08-06T06:42:04;101228.25;;;13.44;75.25
78407;BME280;67692;51.074;-1.790;2023-08-06T06:44:32;101228.84;;;13.60;76.51
78407;BME280;67692;51.074;-1.790;2023-08-06T06:46:59;101233.34;;;13.69;76.42
78407;BME280;67692;51.074;-1.790;2023-08-06T06:49:25;101233.13;;;13.72;75.40
78407;BME280;67692;51.074;-1.790;2023-08-06T06:51:52;101241.09;;;13.82;75.31
78407;BME280;67692;51.074;-1.790;2023-08-06T06:54:19;101235.16;;;13.80;75.26
78407;BME280;67692;51.074;-1.790;2023-08-06T06:56:45;101245.47;;;13.81;75.19
78407;BME280;67692;51.074;-1.790;2023-08-06T06:59:12;101237.66;;;13.81;75.57
78407;BME280;67692;51.074;-1.790;2023-08-06T07:01:40;101252.50;;;13.92;76.88
78407;BME280;67692;51.074;-1.790;2023-08-06T07:04:06;101253.22;;;13.94;75.10
78407;BME280;67692;51.074;-1.790;2023-08-06T07:06:33;101259.97;;;13.96;75.55
78407;BME280;67692;51.074;-1.790;2023-08-06T07:09:00;101261.38;;;14.00;75.08
78407;BME280;67692;51.074;-1.790;2023-08-06T07:11:26;101268.41;;;14.11;76.00
78407;BME280;67692;51.074;-1.790;2023-08-06T07:13:56;101267.38;;;14.25;76.55
78407;BME280;67692;51.074;-1.790;2023-08-06T07:16:23;101267.72;;;14.32;76.57
78407;BME280;67692;51.074;-1.790;2023-08-06T07:18:53;101263.72;;;14.39;76.65
78407;BME280;67692;51.074;-1.790;2023-08-06T07:21:20;101265.97;;;14.43;76.52
78407;BME280;67692;51.074;-1.790;2023-08-06T07:23:46;101266.84;;;14.44;75.95
78407;BME280;67692;51.074;-1.790;2023-08-06T07:26:15;101264.50;;;14.52;76.27
78407;BME280;67692;51.074;-1.790;2023-08-06T07:28:41;101270.53;;;14.52;75.58
78407;BME280;67692;51.074;-1.790;2023-08-06T07:31:08;101263.91;;;14.59;76.13
78407;BME280;67692;51.074;-1.790;2023-08-06T07:33:34;101266.88;;;14.66;75.77
78407;BME280;67692;51.074;-1.790;2023-08-06T07:36:09;101270.06;;;14.70;74.25
78407;BME280;67692;51.074;-1.790;2023-08-06T07:38:36;101267.94;;;14.64;74.01
78407;BME280;67692;51.074;-1.790;2023-08-06T07:41:03;101266.50;;;14.59;73.67
78407;BME280;67692;51.074;-1.790;2023-08-06T07:43:29;101266.69;;;14.34;73.33
78407;BME280;67692;51.074;-1.790;2023-08-06T07:45:57;101262.91;;;14.38;74.09
78407;BME280;67692;51.074;-1.790;2023-08-06T07:48:24;101263.25;;;14.34;73.82
78407;BME280;67692;51.074;-1.790;2023-08-06T07:50:51;101260.28;;;14.38;74.07
78407;BME280;67692;51.074;-1.790;2023-08-06T07:53:20;101264.44;;;14.41;74.89
78407;BME280;67692;51.074;-1.790;2023-08-06T07:55:49;101262.66;;;14.41;73.89
78407;BME280;67692;51.074;-1.790;2023-08-06T07:58:16;101269.13;;;14.48;74.89
78407;BME280;67692;51.074;-1.790;2023-08-06T08:00:42;101269.59;;;14.53;74.81
78407;BME280;67692;51.074;-1.790;2023-08-06T08:03:10;101273.84;;;14.54;73.74
78407;BME280;67692;51.074;-1.790;2023-08-06T08:05:37;101271.00;;;14.57;74.98
78407;BME280;67692;51.074;-1.790;2023-08-06T08:08:04;101274.31;;;14.59;73.31
78407;BME280;67692;51.074;-1.790;2023-08-06T08:10:32;101269.72;;;14.63;73.79
78407;BME280;67692;51.074;-1.790;2023-08-06T08:12:58;101266.28;;;14.63;73.69
78407;BME280;67692;51.074;-1.790;2023-08-06T08:15:25;101263.56;;;14.64;73.43
78407;BME280;67692;51.074;-1.790;2023-08-06T08:17:52;101257.88;;;14.70;73.90
78407;BME280;67692;51.074;-1.790;2023-08-06T08:20:20;101264.03;;;14.80;74.30
78407;BME280;67692;51.074;-1.790;2023-08-06T08:22:47;101272.69;;;14.81;72.91
78407;BME280;67692;51.074;-1.790;2023-08-06T08:25:15;101257.50;;;14.86;73.99
78407;BME280;67692;51.074;-1.790;2023-08-06T08:27:43;101266.28;;;14.96;73.00
78407;BME280;67692;51.074;-1.790;2023-08-06T08:30:10;101250.75;;;15.06;72.05
78407;BME280;67692;51.074;-1.790;2023-08-06T08:32:36;101259.03;;;15.22;72.44
78407;BME280;67692;51.074;-1.790;2023-08-06T08:35:04;101267.66;;;15.34;71.30
78407;BME280;67692;51.074;-1.790;2023-08-06T08:37:30;101264.41;;;15.41;70.93
78407;BME280;67692;51.074;-1.790;2023-08-06T08:39:57;101268.91;;;15.51;71.04
78407;BME280;67692;51.074;-1.790;2023-08-06T08:42:24;101276.38;;;15.55;68.33
78407;BME280;67692;51.074;-1.790;2023-08-06T08:44:52;101263.38;;;15.76;67.34
78407;BME280;67692;51.074;-1.790;2023-08-06T08:47:20;101269.25;;;15.89;67.77
78407;BME280;67692;51.074;-1.790;2023-08-06T08:49:47;101259.16;;;15.96;68.34
78407;BME280;67692;51.074;-1.790;2023-08-06T08:52:16;101255.31;;;16.00;68.85
78407;BME280;67692;51.074;-1.790;2023-08-06T08:54:43;101255.84;;;15.94;67.50
78407;BME280;67692;51.074;-1.790;2023-08-06T08:57:10;101263.72;;;15.83;67.11
78407;BME280;67692;51.074;-1.790;2023-08-06T08:59:37;101263.75;;;15.71;67.24
78407;BME280;67692;51.074;-1.790;2023-08-06T09:02:05;101262.53;;;15.75;67.35
78407;BME280;67692;51.074;-1.790;2023-08-06T09:04:35;101258.88;;;15.78;67.62
78407;BME280;67692;51.074;-1.790;2023-08-06T09:07:02;101265.06;;;15.77;65.36
78407;BME280;67692;51.074;-1.790;2023-08-06T09:09:33;101244.75;;;15.81;66.21
78407;BME280;67692;51.074;-1.790;2023-08-06T09:12:06;101257.09;;;15.99;65.78
78407;BME280;67692;51.074;-1.790;2023-08-06T09:14:35;101249.53;;;15.96;65.32
78407;BME280;67692;51.074;-1.790;2023-08-06T09:17:02;101258.38;;;16.05;65.12
78407;BME280;67692;51.074;-1.790;2023-08-06T09:19:31;101263.94;;;16.12;65.42
78407;BME280;67692;51.074;-1.790;2023-08-06T09:21:58;101265.72;;;16.11;65.40
78407;BME280;67692;51.074;-1.790;2023-08-06T09:24:25;101258.44;;;16.15;63.59
78407;BME280;67692;51.074;-1.790;2023-08-06T09:26:53;101270.56;;;16.16;62.91
78407;BME280;67692;51.074;-1.790;2023-08-06T09:29:19;101278.25;;;16.17;61.96
78407;BME280;67692;51.074;-1.790;2023-08-06T09:31:47;101285.22;;;16.28;62.43
78407;BME280;67692;51.074;-1.790;2023-08-06T09:34:15;101273.75;;;16.40;62.34
78407;BME280;67692;51.074;-1.790;2023-08-06T09:36:46;101280.34;;;16.44;63.53
78407;BME280;67692;51.074;-1.790;2023-08-06T09:39:13;101268.50;;;16.40;64.62
78407;BME280;67692;51.074;-1.790;2023-08-06T09:41:41;101276.97;;;16.32;65.43
78407;BME280;67692;51.074;-1.790;2023-08-06T09:44:15;101280.41;;;16.33;66.25
78407;BME280;67692;51.074;-1.790;2023-08-06T09:46:42;101277.66;;;16.34;64.96
78407;BME280;67692;51.074;-1.790;2023-08-06T09:49:09;101293.28;;;16.46;63.36
78407;BME280;67692;51.074;-1.790;2023-08-06T09:51:37;101286.16;;;16.48;62.06
78407;BME280;67692;51.074;-1.790;2023-08-06T09:54:07;101286.88;;;16.50;62.18
78407;BME280;67692;51.074;-1.790;2023-08-06T09:56:34;101280.84;;;16.59;62.52
78407;BME280;67692;51.074;-1.790;2023-08-06T09:59:04;101273.56;;;16.62;62.51
78407;BME280;67692;51.074;-1.790;2023-08-06T10:01:32;101292.81;;;16.61;60.71
78407;BME280;67692;51.074;-1.790;2023-08-06T10:03:59;101287.94;;;16.68;60.75
78407;BME280;67692;51.074;-1.790;2023-08-06T10:06:28;101278.94;;;16.82;60.66
78407;BME280;67692;51.074;-1.790;2023-08-06T10:08:55;101287.53;;;17.03;60.42
78407;BME280;67692;51.074;-1.790;2023-08-06T10:11:24;101288.69;;;17.20;60.35
78407;BME280;67692;51.074;-1.790;2023-08-06T10:13:57;101288.16;;;17.26;61.00
78407;BME280;67692;51.074;-1.790;2023-08-06T10:16:25;101298.44;;;17.08;60.79
78407;BME280;67692;51.074;-1.790;2023-08-06T10:18:52;101297.72;;;16.97;60.98
78407;BME280;67692;51.074;-1.790;2023-08-06T10:21:20;101294.69;;;17.01;59.77
78407;BME280;67692;51.074;-1.790;2023-08-06T10:23:53;101295.25;;;17.05;60.08
78407;BME280;67692;51.074;-1.790;2023-08-06T10:26:26;101282.31;;;17.03;59.65
78407;BME280;67692;51.074;-1.790;2023-08-06T10:28:53;101283.03;;;17.15;59.13
78407;BME280;67692;51.074;-1.790;2023-08-06T10:31:20;101290.50;;;17.29;58.92
78407;BME280;67692;51.074;-1.790;2023-08-06T10:33:47;101288.31;;;17.34;58.09
78407;BME280;67692;51.074;-1.790;2023-08-06T10:36:14;101273.59;;;17.43;58.29
78407;BME280;67692;51.074;-1.790;2023-08-06T10:38:45;101292.47;;;17.37;56.71
78407;BME280;67692;51.074;-1.790;2023-08-06T10:41:16;101272.47;;;17.45;57.32
78407;BME280;67692;51.074;-1.790;2023-08-06T10:43:47;101281.78;;;17.69;57.14
78407;BME280;67692;51.074;-1.790;2023-08-06T10:46:22;101276.94;;;17.74;58.07
78407;BME280;67692;51.074;-1.790;2023-08-06T10:48:49;101284.00;;;17.83;58.55
78407;BME280;67692;51.074;-1.790;2023-08-06T10:51:16;101291.56;;;17.86;57.82
78407;BME280;67692;51.074;-1.790;2023-08-06T10:53:44;101287.16;;;17.77;57.64
78407;BME280;67692;51.074;-1.790;2023-08-06T10:56:14;101288.66;;;17.70;57.56
78407;BME280;67692;51.074;-1.790;2023-08-06T10:58:41;101290.72;;;17.76;58.33
78407;BME280;67692;51.074;-1.790;2023-08-06T11:01:10;101293.63;;;17.73;58.83
78407;BME280;67692;51.074;-1.790;2023-08-06T11:03:37;101292.47;;;17.56;58.30
78407;BME280;67692;51.074;-1.790;2023-08-06T11:06:06;101297.16;;;17.52;58.99
78407;BME280;67692;51.074;-1.790;2023-08-06T11:08:34;101303.78;;;17.57;59.46
78407;BME280;67692;51.074;-1.790;2023-08-06T11:11:07;101302.31;;;17.73;59.88
78407;BME280;67692;51.074;-1.790;2023-08-06T11:13:34;101295.16;;;17.95;58.98
78407;BME280;67692;51.074;-1.790;2023-08-06T11:16:01;101304.09;;;17.92;57.00
78407;BME280;67692;51.074;-1.790;2023-08-06T11:18:29;101303.97;;;17.84;56.67
78407;BME280;67692;51.074;-1.790;2023-08-06T11:20:58;101309.22;;;17.84;58.15
78407;BME280;67692;51.074;-1.790;2023-08-06T11:23:26;101308.94;;;17.77;57.44
78407;BME280;67692;51.074;-1.790;2023-08-06T11:25:53;101311.13;;;17.72;57.43
78407;BME280;67692;51.074;-1.790;2023-08-06T11:28:20;101315.34;;;17.64;57.17
78407;BME280;67692;51.074;-1.790;2023-08-06T11:30:47;101316.31;;;17.63;56.65
78407;BME280;67692;51.074;-1.790;2023-08-06T11:33:14;101320.09;;;17.70;57.24
78407;BME280;67692;51.074;-1.790;2023-08-06T11:35:42;101309.16;;;17.65;58.12
78407;BME280;67692;51.074;-1.790;2023-08-06T11:38:09;101309.44;;;17.62;56.85
78407;BME280;67692;51.074;-1.790;2023-08-06T11:40:35;101307.78;;;17.61;57.54
78407;BME280;67692;51.074;-1.790;2023-08-06T11:43:02;101314.53;;;17.63;57.87
78407;BME280;67692;51.074;-1.790;2023-08-06T11:45:29;101306.69;;;17.63;58.69
78407;BME280;67692;51.074;-1.790;2023-08-06T11:47:56;101292.06;;;17.61;60.08
78407;BME280;67692;51.074;-1.790;2023-08-06T11:50:24;101294.81;;;17.59;58.85
78407;BME280;67692;51.074;-1.790;2023-08-06T11:52:55;101292.63;;;17.64;59.22
78407;BME280;67692;51.074;-1.790;2023-08-06T11:55:23;101286.28;;;17.57;56.51
78407;BME280;67692;51.074;-1.790;2023-08-06T11:57:50;101294.06;;;17.68;57.66
78407;BME280;67692;51.074;-1.790;2023-08-06T12:00:18;101302.31;;;17.73;56.67
78407;BME280;67692;51.074;-1.790;2023-08-06T12:02:48;101298.31;;;17.79;56.61
78407;BME280;67692;51.074;-1.790;2023-08-06T12:05:17;101293.22;;;17.87;58.42
78407;BME280;67692;51.074;-1.790;2023-08-06T12:07:47;101285.75;;;18.02;56.29
78407;BME280;67692;51.074;-1.790;2023-08-06T12:10:16;101281.63;;;18.09;56.55
78407;BME280;67692;51.074;-1.790;2023-08-06T12:12:44;101279.41;;;18.24;57.11
78407;BME280;67692;51.074;-1.790;2023-08-06T12:15:11;101292.31;;;18.44;54.97
78407;BME280;67692;51.074;-1.790;2023-08-06T12:17:38;101293.50;;;18.60;54.42
78407;BME280;67692;51.074;-1.790;2023-08-06T12:20:06;101289.63;;;18.73;54.17
78407;BME280;67692;51.074;-1.790;2023-08-06T12:22:33;101296.25;;;18.78;54.46
78407;BME280;67692;51.074;-1.790;2023-08-06T12:25:01;101296.44;;;18.66;54.39
78407;BME280;67692;51.074;-1.790;2023-08-06T12:27:30;101316.09;;;18.24;58.95
78407;BME280;67692;51.074;-1.790;2023-08-06T12:29:56;101335.31;;;17.45;70.43
78407;BME280;67692;51.074;-1.790;2023-08-06T12:32:23;101328.59;;;16.61;73.76
78407;BME280;67692;51.074;-1.790;2023-08-06T12:34:49;101335.75;;;16.17;71.50
78407;BME280;67692;51.074;-1.790;2023-08-06T12:37:16;101317.63;;;16.04;73.47
78407;BME280;67692;51.074;-1.790;2023-08-06T12:39:42;101325.56;;;16.14;73.22
78407;BME280;67692;51.074;-1.790;2023-08-06T12:42:09;101321.03;;;16.16;69.60